createdAt,value
2017-09-23T00:02:54.475Z,22.43
2017-09-23T00:07:58.669Z,21.17
2017-09-23T00:13:02.615Z,20.70
2017-09-23T00:18:08.005Z,21.50
2017-09-23T00:23:13.859Z,21.53
2017-09-23T00:28:20.472Z,20.53
2017-09-23T00:33:29.200Z,21.57
2017-09-23T00:38:32.970Z,22.17
2017-09-23T00:43:41.400Z,19.27
2017-09-23T00:48:45.458Z,18.83
2017-09-23T00:53:54.771Z,19.43
2017-09-23T00:58:57.494Z,21.17
2017-09-23T01:03:59.932Z,20.40
2017-09-23T01:09:08.327Z,19.20
2017-09-23T01:14:11.550Z,20.57
2017-09-23T01:19:15.754Z,18.97
2017-09-23T01:24:19.464Z,20.20
2017-09-23T01:29:22.028Z,19.57
2017-09-23T01:34:25.377Z,18.37
2017-09-23T01:39:27.992Z,19.43
2017-09-23T01:44:35.518Z,19.47
2017-09-23T01:49:43.730Z,23.50
2017-09-23T01:54:47.360Z,24.53
2017-09-23T01:59:54.238Z,22.43
2017-09-23T02:05:02.101Z,24.17
2017-09-23T02:10:04.899Z,25.97
2017-09-23T02:15:08.604Z,24.63
2017-09-23T02:20:15.628Z,24.30
2017-09-23T02:25:20.588Z,24.07
2017-09-23T02:30:28.398Z,23.83
2017-09-23T02:35:36.644Z,27.40
2017-09-23T02:40:39.899Z,23.40
2017-09-23T02:45:42.521Z,24.97
2017-09-23T02:50:45.231Z,26.60
2017-09-23T02:55:48.309Z,24.97
2017-09-23T03:00:51.355Z,27.53
2017-09-23T03:05:54.342Z,26.43
2017-09-23T03:10:56.928Z,27.87
2017-09-23T03:15:59.476Z,27.80
2017-09-23T03:21:01.495Z,28.27
2017-09-23T03:26:04.887Z,26.83
2017-09-23T03:31:07.316Z,26.77
2017-09-23T03:36:09.313Z,32.93
2017-09-23T03:41:11.926Z,33.83
2017-09-23T03:46:14.339Z,39.53
2017-09-23T03:51:16.933Z,35.73
2017-09-23T03:56:19.599Z,39.90
2017-09-23T04:01:25.848Z,48.97
2017-09-23T04:06:33.631Z,49.03
2017-09-23T04:11:37.360Z,45.13
2017-09-23T04:16:42.419Z,48.20
2017-09-23T04:21:45.609Z,45.70
2017-09-23T04:26:48.127Z,45.50
2017-09-23T04:31:50.607Z,51.97
2017-09-23T04:36:53.334Z,57.87
2017-09-23T04:41:55.986Z,60.10
2017-09-23T04:46:58.964Z,59.83
2017-09-23T04:52:02.210Z,63.37
2017-09-23T04:57:04.916Z,60.60
2017-09-23T05:02:07.077Z,61.37
2017-09-23T05:07:09.308Z,68.47
2017-09-23T05:12:12.003Z,69.20
2017-09-23T05:17:14.668Z,64.70
2017-09-23T05:22:17.241Z,68.07
2017-09-23T05:27:19.777Z,61.17
2017-09-23T05:32:21.754Z,61.77
2017-09-23T05:37:24.302Z,61.80
2017-09-23T05:42:27.636Z,60.37
2017-09-23T05:47:30.342Z,65.03
2017-09-23T05:52:32.813Z,66.70
2017-09-23T05:57:35.425Z,64.10
2017-09-23T06:02:38.039Z,67.77
2017-09-23T06:07:39.931Z,64.87
2017-09-23T06:12:42.597Z,61.30
2017-09-23T06:17:45.351Z,64.63
2017-09-23T06:22:47.332Z,64.93
2017-09-23T06:27:49.253Z,63.67
2017-09-23T06:32:51.174Z,63.73
2017-09-23T06:37:53.072Z,58.53
2017-09-23T06:42:54.975Z,57.30
2017-09-23T06:47:57.007Z,56.63
2017-09-23T06:52:58.954Z,56.30
2017-09-23T06:58:00.832Z,53.63
2017-09-23T07:03:02.830Z,56.17
2017-09-23T07:08:04.733Z,58.30
2017-09-23T07:13:07.391Z,62.07
2017-09-23T07:18:09.354Z,63.30
2017-09-23T07:23:12.090Z,65.53
2017-09-23T07:28:14.909Z,62.47
2017-09-23T07:33:16.809Z,65.50
2017-09-23T07:38:18.693Z,63.47
2017-09-23T07:43:20.629Z,64.00
2017-09-23T07:48:23.250Z,62.17
2017-09-23T07:53:25.242Z,61.00
2017-09-23T07:58:27.275Z,59.90
2017-09-23T08:03:29.945Z,61.20
2017-09-23T08:08:32.607Z,63.13
2017-09-23T08:13:35.329Z,61.67
2017-09-23T08:18:37.256Z,61.10
2017-09-23T08:23:39.132Z,63.17
2017-09-23T08:28:41.032Z,64.17
2017-09-23T08:33:42.965Z,64.97
2017-09-23T08:38:45.599Z,64.10
2017-09-23T08:43:47.486Z,64.37
2017-09-23T08:48:49.372Z,65.27
2017-09-23T08:53:51.278Z,62.17
2017-09-23T08:58:53.210Z,63.47
2017-09-23T09:03:55.868Z,62.57
2017-09-23T09:08:58.539Z,65.83
2017-09-23T09:14:00.448Z,63.37
2017-09-23T09:19:02.374Z,60.50
2017-09-23T09:24:04.343Z,59.30
2017-09-23T09:29:06.273Z,65.17
2017-09-23T09:34:08.190Z,61.50
2017-09-23T09:39:10.188Z,64.77
2017-09-23T09:44:12.123Z,58.87
2017-09-23T09:49:14.060Z,62.20
2017-09-23T09:54:16.267Z,64.93
2017-09-23T09:59:18.949Z,65.13
2017-09-23T10:04:20.886Z,68.10
2017-09-23T10:09:22.821Z,67.17
2017-09-23T10:14:25.557Z,66.47
2017-09-23T10:19:27.812Z,67.23
2017-09-23T10:24:30.979Z,68.97
2017-09-23T10:29:32.883Z,69.20
2017-09-23T10:34:34.816Z,65.67
2017-09-23T10:39:36.751Z,67.50
2017-09-23T10:44:38.651Z,70.23
2017-09-23T10:49:40.574Z,72.33
2017-09-23T10:54:43.223Z,70.40
2017-09-23T10:59:45.128Z,69.80
2017-09-23T11:04:47.011Z,73.80
2017-09-23T11:09:49.636Z,71.40
2017-09-23T11:14:53.104Z,69.63
2017-09-23T11:19:55.137Z,73.33
2017-09-23T11:24:57.129Z,67.20
2017-09-23T11:29:59.805Z,69.93
2017-09-23T11:35:02.500Z,71.77
2017-09-23T11:40:04.461Z,71.60
2017-09-23T11:45:06.376Z,73.80
2017-09-23T11:50:09.067Z,67.00
2017-09-23T11:55:11.063Z,68.43
2017-09-23T12:00:12.987Z,70.20
2017-09-23T12:05:14.915Z,62.90
2017-09-23T12:10:16.908Z,66.03
2017-09-23T12:15:18.855Z,63.67
2017-09-23T12:20:20.852Z,58.77
2017-09-23T12:25:22.839Z,58.93
2017-09-23T12:30:24.780Z,63.53
2017-09-23T12:35:26.880Z,61.70
2017-09-23T12:40:28.926Z,55.23
2017-09-23T12:45:30.904Z,59.80
2017-09-23T12:50:32.872Z,61.60
2017-09-23T12:55:34.802Z,61.07
2017-09-23T13:00:36.731Z,60.43
2017-09-23T13:05:38.663Z,58.60
2017-09-23T13:10:40.600Z,56.50
2017-09-23T13:15:42.590Z,44.10
2017-09-23T13:20:44.582Z,49.57
2017-09-23T13:25:46.579Z,43.97
2017-09-23T13:30:48.509Z,47.43
2017-09-23T13:35:50.415Z,48.23
2017-09-23T13:40:53.247Z,46.70
2017-09-23T13:45:55.263Z,50.60
2017-09-23T13:50:57.272Z,48.10
2017-09-23T13:55:59.204Z,48.87
2017-09-23T14:01:01.107Z,49.70
2017-09-23T14:06:03.102Z,46.77
2017-09-23T14:11:05.023Z,46.20
2017-09-23T14:16:10.022Z,47.80
2017-09-23T14:21:14.359Z,44.30
2017-09-23T14:26:22.828Z,47.17
2017-09-23T14:31:28.982Z,47.07
2017-09-23T14:36:34.577Z,44.70
2017-09-23T14:41:40.800Z,46.07
2017-09-23T14:46:45.912Z,47.33
2017-09-23T14:51:50.800Z,55.10
2017-09-23T14:56:56.001Z,41.60
2017-09-23T15:02:02.248Z,48.37
2017-09-23T15:07:08.540Z,46.50
2017-09-23T15:12:16.741Z,44.03
2017-09-23T15:17:20.556Z,49.60
2017-09-23T15:22:25.844Z,48.70
2017-09-23T15:27:32.814Z,52.40
2017-09-23T15:32:38.534Z,52.60
2017-09-23T15:37:44.709Z,54.90
2017-09-23T15:42:47.474Z,54.57
2017-09-23T15:47:52.736Z,53.97
2017-09-23T15:52:58.235Z,53.20
2017-09-23T15:58:02.621Z,53.87
2017-09-23T16:03:08.851Z,50.07
2017-09-23T16:08:13.419Z,48.60
2017-09-23T16:13:19.920Z,52.03
2017-09-23T16:18:24.534Z,51.83
2017-09-23T16:23:29.146Z,52.53
2017-09-23T16:28:32.009Z,54.57
2017-09-23T16:33:37.638Z,49.83
2017-09-23T16:38:40.568Z,50.90
2017-09-23T16:43:47.917Z,51.97
2017-09-23T16:48:55.395Z,53.10
2017-09-23T16:54:01.836Z,53.27
2017-09-23T16:59:07.054Z,54.60
2017-09-23T17:04:11.357Z,55.07
2017-09-23T17:09:16.985Z,55.17
2017-09-23T17:14:21.046Z,58.07
2017-09-23T17:19:28.130Z,54.93
2017-09-23T17:24:30.339Z,53.70
2017-09-23T17:29:33.039Z,53.37
2017-09-23T17:34:36.075Z,54.17
2017-09-23T17:39:38.505Z,52.63
2017-09-23T17:44:41.158Z,54.77
2017-09-23T17:49:43.478Z,54.03
2017-09-23T17:54:46.172Z,53.33
2017-09-23T17:59:48.567Z,56.70
2017-09-23T18:04:50.888Z,55.33
2017-09-23T18:09:53.225Z,53.30
2017-09-23T18:14:55.412Z,55.30
2017-09-23T18:19:59.628Z,57.20
2017-09-23T18:25:02.035Z,58.33
2017-09-23T18:30:05.283Z,55.97
2017-09-23T18:35:07.789Z,54.03
2017-09-23T18:40:10.246Z,54.37
2017-09-23T18:45:12.301Z,49.83
2017-09-23T18:50:14.505Z,51.83
2017-09-23T18:55:22.801Z,55.87
2017-09-23T19:00:27.989Z,53.60
2017-09-23T19:05:34.265Z,55.87
2017-09-23T19:10:41.205Z,50.90
2017-09-23T19:15:46.413Z,47.63
2017-09-23T19:20:49.319Z,59.93
2017-09-23T19:25:55.366Z,55.30
2017-09-23T19:31:01.220Z,56.17
2017-09-23T19:36:08.385Z,54.77
2017-09-23T19:41:12.078Z,55.97
2017-09-23T19:46:19.853Z,54.97
2017-09-23T19:51:25.756Z,53.10
2017-09-23T19:56:30.957Z,54.10
2017-09-23T20:01:37.776Z,50.77
2017-09-23T20:06:42.251Z,52.73
2017-09-23T20:11:48.152Z,55.37
2017-09-23T20:16:53.869Z,58.00
2017-09-23T20:22:00.855Z,57.77
2017-09-23T20:27:06.608Z,55.10
2017-09-23T20:32:11.926Z,61.10
2017-09-23T20:37:18.197Z,56.00
2017-09-23T20:42:22.304Z,57.63
2017-09-23T20:47:28.704Z,58.23
2017-09-23T20:52:35.805Z,52.00
2017-09-23T20:57:39.887Z,56.57
2017-09-23T21:02:45.026Z,56.73
2017-09-23T21:07:50.077Z,53.47
2017-09-23T21:12:57.674Z,53.43
2017-09-23T21:18:04.363Z,56.77
2017-09-23T21:23:10.128Z,52.90
2017-09-23T21:28:14.678Z,62.10
2017-09-23T21:33:19.172Z,50.30
2017-09-23T21:38:22.523Z,56.63
2017-09-23T21:43:25.850Z,55.90
2017-09-23T21:48:32.545Z,52.97
2017-09-23T21:53:38.194Z,50.50
2017-09-23T21:58:44.805Z,48.50
2017-09-23T22:03:50.580Z,50.60
2017-09-23T22:08:54.964Z,53.37
2017-09-23T22:13:59.258Z,52.30
2017-09-23T22:19:04.296Z,51.37
2017-09-23T22:24:10.147Z,51.50
2017-09-23T22:29:15.899Z,51.47
2017-09-23T22:34:20.662Z,51.00
2017-09-23T22:39:25.693Z,50.67
2017-09-23T22:44:31.938Z,50.60
2017-09-23T22:49:36.401Z,52.13
2017-09-23T22:54:39.689Z,51.63
2017-09-23T22:59:46.050Z,50.10
2017-09-23T23:04:49.508Z,53.10
2017-09-23T23:09:56.391Z,51.37
2017-09-23T23:15:04.046Z,53.67
2017-09-23T23:20:11.742Z,57.80
2017-09-23T23:25:20.538Z,61.93
2017-09-23T23:30:23.499Z,60.47
2017-09-23T23:35:28.390Z,60.00
2017-09-23T23:40:32.275Z,58.10
2017-09-23T23:45:39.596Z,57.77
2017-09-23T23:50:46.381Z,53.40
2017-09-23T23:55:52.515Z,55.93
